createdAt,value
2022-07-25T00:03:29.314Z,98812.28
2022-07-25T00:08:34.313Z,98812.47
2022-07-25T00:13:41.991Z,98800.19
2022-07-25T00:18:46.983Z,98807.06
2022-07-25T00:23:51.862Z,98805.75
2022-07-25T00:28:59.432Z,98796.53
2022-07-25T00:34:04.691Z,98783.47
2022-07-25T00:39:10.052Z,98785.09
2022-07-25T00:44:28.050Z,98793.84
2022-07-25T00:49:33.011Z,98782.63
2022-07-25T00:54:37.973Z,98781.97
2022-07-25T00:59:45.730Z,98778.78
2022-07-25T01:04:50.762Z,98780.19
2022-07-25T01:09:56.472Z,98773.75
2022-07-25T01:15:03.955Z,98765.00
2022-07-25T01:20:16.922Z,98766.16
2022-07-25T01:25:22.589Z,98759.22
2022-07-25T01:30:28.613Z,98749.47
2022-07-25T01:35:40.167Z,98748.28
2022-07-25T01:40:48.245Z,98747.56
2022-07-25T01:45:53.345Z,98733.44
2022-07-25T01:51:00.963Z,98730.31
2022-07-25T01:56:06.209Z,98725.50
2022-07-25T02:01:13.916Z,98722.88
2022-07-25T02:06:22.326Z,98725.13
2022-07-25T02:11:27.331Z,98718.19
2022-07-25T02:16:32.848Z,98727.41
2022-07-25T02:21:40.407Z,98723.16
2022-07-25T02:26:45.321Z,98712.84
2022-07-25T02:31:52.113Z,98712.94
2022-07-25T02:36:59.603Z,98703.84
2022-07-25T02:42:04.661Z,98699.00
2022-07-25T02:47:09.881Z,98707.03
2022-07-25T02:52:17.629Z,98709.50
2022-07-25T02:57:22.537Z,98706.50
2022-07-25T03:02:27.424Z,98698.13
2022-07-25T03:07:35.178Z,98693.09
2022-07-25T03:12:43.342Z,98697.16
2022-07-25T03:17:48.114Z,98692.84
2022-07-25T03:22:55.703Z,98692.47
2022-07-25T03:28:03.178Z,98692.72
2022-07-25T03:33:08.143Z,98685.34
2022-07-25T03:38:15.872Z,98685.63
2022-07-25T03:43:21.011Z,98673.31
2022-07-25T03:48:26.126Z,98676.47
2022-07-25T03:53:34.079Z,98667.44
2022-07-25T03:58:40.052Z,98659.75
2022-07-25T04:03:44.978Z,98663.69
2022-07-25T04:08:53.380Z,98658.81
2022-07-25T04:13:58.778Z,98652.25
2022-07-25T04:19:03.675Z,98647.63
2022-07-25T04:24:13.931Z,98640.44
2022-07-25T04:29:18.878Z,98638.69
2022-07-25T04:34:23.997Z,98634.13
2022-07-25T04:39:31.644Z,98629.31
2022-07-25T04:44:37.961Z,98620.38
2022-07-25T04:49:42.929Z,98614.72
2022-07-25T04:54:50.521Z,98599.41
2022-07-25T04:59:55.489Z,98592.78
2022-07-25T05:05:00.439Z,98587.22
2022-07-25T05:10:12.011Z,98582.22
2022-07-25T05:15:16.995Z,98575.34
2022-07-25T05:20:22.027Z,98581.31
2022-07-25T05:25:30.164Z,98570.78
2022-07-25T05:30:39.562Z,98570.44
2022-07-25T05:35:45.489Z,98569.44
2022-07-25T05:40:58.644Z,98573.06
2022-07-25T05:46:05.263Z,98559.25
2022-07-25T05:51:10.652Z,98558.56
2022-07-25T05:56:18.437Z,98549.09
2022-07-25T06:01:23.743Z,98542.22
2022-07-25T06:06:30.754Z,98536.31
2022-07-25T06:11:51.079Z,98523.53
2022-07-25T06:16:59.809Z,98532.41
2022-07-25T06:22:04.693Z,98521.31
2022-07-25T06:27:14.974Z,98513.25
2022-07-25T06:32:24.548Z,98523.28
2022-07-25T06:37:29.572Z,98519.56
2022-07-25T06:42:41.188Z,98506.72
2022-07-25T06:47:48.016Z,98503.69
2022-07-25T06:52:54.586Z,98516.31
2022-07-25T06:58:02.187Z,98506.09
2022-07-25T07:03:07.381Z,98496.59
2022-07-25T07:08:15.571Z,98481.19
2022-07-25T07:13:24.622Z,98485.88
2022-07-25T07:18:30.197Z,98484.53
2022-07-25T07:23:35.583Z,98494.09
2022-07-25T07:28:44.645Z,98487.31
2022-07-25T07:33:49.735Z,98478.78
2022-07-25T07:38:55.099Z,98483.34
2022-07-25T07:44:02.606Z,98479.44
2022-07-25T07:49:08.023Z,98484.25
2022-07-25T07:54:25.695Z,98484.84
2022-07-25T07:59:35.086Z,98478.38
2022-07-25T08:04:39.950Z,98480.56
2022-07-25T08:09:44.796Z,98479.72
2022-07-25T08:14:52.301Z,98463.47
2022-07-25T08:20:05.518Z,98461.97
2022-07-25T08:25:22.526Z,98473.56
2022-07-25T08:30:34.262Z,98459.72
2022-07-25T08:35:49.174Z,98455.63
2022-07-25T08:40:54.689Z,98460.59
2022-07-25T08:46:04.098Z,98447.75
2022-07-25T08:51:11.058Z,98455.06
2022-07-25T08:56:20.590Z,98435.84
2022-07-25T09:01:34.468Z,98433.81
2022-07-25T09:06:40.433Z,98431.28
2022-07-25T09:11:45.685Z,98430.88
2022-07-25T09:16:53.655Z,98420.47
2022-07-25T09:22:04.622Z,98420.47
2022-07-25T09:27:13.102Z,98412.91
2022-07-25T09:32:22.809Z,98405.31
2022-07-25T09:37:34.126Z,98411.25
2022-07-25T09:42:43.910Z,98408.47
2022-07-25T09:48:00.196Z,98395.06
2022-07-25T09:53:05.883Z,98384.25
2022-07-25T09:58:10.747Z,98378.06
2022-07-25T10:03:28.161Z,98364.72
2022-07-25T10:08:38.384Z,98368.28
2022-07-25T10:13:43.280Z,98355.72
2022-07-25T10:18:56.350Z,98360.19
2022-07-25T10:24:03.158Z,98347.13
2022-07-25T10:29:11.710Z,98344.81
2022-07-25T10:34:20.735Z,98332.09
2022-07-25T10:39:26.739Z,98317.59
2022-07-25T10:44:43.011Z,98323.25
2022-07-25T10:50:21.999Z,98312.22
2022-07-25T10:55:26.626Z,98305.13
2022-07-25T11:00:32.452Z,98295.59
2022-07-25T11:05:54.721Z,98292.75
2022-07-25T11:11:02.134Z,98289.63
2022-07-25T11:16:07.968Z,98294.31
2022-07-25T11:21:17.167Z,98292.03
2022-07-25T11:26:22.159Z,98280.56
2022-07-25T11:31:27.908Z,98273.19
2022-07-25T11:36:35.847Z,98260.22
2022-07-25T11:41:41.250Z,98266.00
2022-07-25T11:46:47.346Z,98248.75
2022-07-25T11:51:55.364Z,98243.53
2022-07-25T11:57:00.724Z,98224.50
2022-07-25T12:02:05.823Z,98227.16
2022-07-25T12:07:15.068Z,98241.09
2022-07-25T12:12:20.145Z,98232.06
2022-07-25T12:17:25.010Z,98212.31
2022-07-25T12:22:35.354Z,98208.63
2022-07-25T12:27:40.658Z,98193.97
2022-07-25T12:32:47.769Z,98207.13
2022-07-25T12:37:55.740Z,98192.31
2022-07-25T12:43:01.307Z,98181.66
2022-07-25T12:48:06.725Z,98175.28
2022-07-25T12:53:16.359Z,98164.50
2022-07-25T12:58:21.758Z,98169.16
2022-07-25T13:03:26.750Z,98152.88
2022-07-25T13:08:37.906Z,98135.22
2022-07-25T13:13:43.284Z,98139.72
2022-07-25T13:18:48.338Z,98136.59
2022-07-25T13:23:55.913Z,98123.94
2022-07-25T13:29:01.983Z,98120.19
2022-07-25T13:34:06.955Z,98120.13
2022-07-25T13:39:14.587Z,98120.38
2022-07-25T13:44:22.531Z,98107.88
2022-07-25T13:49:27.927Z,98095.28
2022-07-25T13:54:37.562Z,98078.47
2022-07-25T13:59:44.478Z,98078.44
2022-07-25T14:04:52.889Z,98065.72
2022-07-25T14:10:00.632Z,98067.88
2022-07-25T14:15:05.615Z,98057.63
2022-07-25T14:20:12.667Z,98064.19
2022-07-25T14:25:20.298Z,98057.56
2022-07-25T14:30:25.457Z,98057.91
2022-07-25T14:35:32.683Z,98030.66
2022-07-25T14:40:40.563Z,98029.16
2022-07-25T14:45:45.570Z,98041.94
2022-07-25T14:50:50.784Z,98026.88
2022-07-25T14:55:58.281Z,98010.03
2022-07-25T15:01:03.432Z,98000.03
2022-07-25T15:06:10.514Z,97987.56
2022-07-25T15:11:17.948Z,97988.09
2022-07-25T15:16:23.500Z,97976.84
2022-07-25T15:21:28.838Z,97960.63
2022-07-25T15:26:37.043Z,97967.13
2022-07-25T15:31:42.092Z,97976.78
2022-07-25T15:36:47.297Z,97958.47
2022-07-25T15:41:55.009Z,97957.13
2022-07-25T15:47:00.054Z,97954.59
2022-07-25T15:52:04.983Z,97942.97
2022-07-25T15:57:12.477Z,97934.94
2022-07-25T16:02:18.124Z,97943.41
2022-07-25T16:07:23.477Z,97929.53
2022-07-25T16:12:30.993Z,97921.91
2022-07-25T16:17:36.769Z,97917.66
2022-07-25T16:22:42.440Z,97916.31
2022-07-25T16:27:49.992Z,97898.53
2022-07-25T16:32:55.737Z,97888.84
2022-07-25T16:38:03.510Z,97885.41
2022-07-25T16:43:10.958Z,97876.78
2022-07-25T16:48:15.981Z,97874.13
2022-07-25T16:53:20.917Z,97868.44
2022-07-25T16:58:28.535Z,97863.94
2022-07-25T17:03:33.833Z,97856.91
2022-07-25T17:08:39.243Z,97851.13
2022-07-25T17:13:52.032Z,97846.91
2022-07-25T17:18:58.023Z,97836.94
2022-07-25T17:24:04.998Z,97836.41
2022-07-25T17:29:12.730Z,97826.22
2022-07-25T17:34:17.721Z,97831.00
2022-07-25T17:39:22.772Z,97826.03
2022-07-25T17:44:32.936Z,97821.75
2022-07-25T17:49:37.949Z,97844.72
2022-07-25T17:54:43.065Z,97840.44
2022-07-25T17:59:50.802Z,97835.56
2022-07-25T18:04:56.157Z,97829.66
2022-07-25T18:10:01.228Z,97828.94
2022-07-25T18:15:12.174Z,97829.84
2022-07-25T18:20:18.777Z,97830.13
2022-07-25T18:25:23.753Z,97899.88
2022-07-25T18:30:31.453Z,97936.28
2022-07-25T18:35:38.730Z,97913.38
2022-07-25T18:40:45.033Z,97923.63
2022-07-25T18:45:54.211Z,97924.47
2022-07-25T18:50:59.155Z,97921.75
2022-07-25T18:56:05.714Z,97912.50
2022-07-25T19:01:13.412Z,97927.59
2022-07-25T19:06:19.301Z,97921.34
2022-07-25T19:11:24.651Z,97926.88
2022-07-25T19:16:32.765Z,97954.78
2022-07-25T19:21:37.822Z,97961.56
2022-07-25T19:26:42.994Z,97964.09
2022-07-25T19:31:56.224Z,97960.69
2022-07-25T19:37:01.184Z,97956.53
2022-07-25T19:42:12.105Z,97951.06
2022-07-25T19:47:19.595Z,97941.84
2022-07-25T19:52:24.467Z,97946.25
2022-07-25T19:57:29.631Z,97944.03
2022-07-25T20:02:37.311Z,97968.72
2022-07-25T20:07:42.732Z,97974.88
2022-07-25T20:12:47.941Z,97999.75
2022-07-25T20:17:56.805Z,97997.84
2022-07-25T20:23:01.790Z,97987.19
2022-07-25T20:28:07.461Z,97994.97
2022-07-25T20:33:14.970Z,97999.03
2022-07-25T20:38:19.858Z,97956.63
2022-07-25T20:43:29.924Z,97975.94
2022-07-25T20:48:38.159Z,97998.59
2022-07-25T20:53:43.937Z,97967.03
2022-07-25T20:58:49.785Z,97965.19
2022-07-25T21:03:57.309Z,97965.84
2022-07-25T21:09:02.433Z,97974.63
2022-07-25T21:14:08.044Z,97988.06
2022-07-25T21:19:15.916Z,97983.38
2022-07-25T21:24:20.888Z,97982.38
2022-07-25T21:29:25.864Z,97991.13
2022-07-25T21:34:34.041Z,97991.50
2022-07-25T21:39:38.946Z,98003.91
2022-07-25T21:44:45.454Z,97988.16
2022-07-25T21:50:05.676Z,97995.19
2022-07-25T21:55:12.040Z,97989.78
2022-07-25T22:00:18.460Z,98006.44
2022-07-25T22:05:26.531Z,98004.31
2022-07-25T22:10:32.003Z,98001.81
2022-07-25T22:15:36.951Z,97998.84
2022-07-25T22:20:45.334Z,98007.88
2022-07-25T22:25:50.255Z,98000.16
2022-07-25T22:30:55.314Z,97991.09
2022-07-25T22:36:02.821Z,98018.13
2022-07-25T22:41:08.271Z,98049.50
2022-07-25T22:46:13.260Z,98067.72
2022-07-25T22:51:23.197Z,98059.06
2022-07-25T22:56:28.946Z,98042.88
2022-07-25T23:01:33.902Z,98055.66
2022-07-25T23:06:42.660Z,98077.69
2022-07-25T23:11:49.210Z,98082.22
2022-07-25T23:17:06.364Z,98092.91
2022-07-25T23:22:21.064Z,98074.66
2022-07-25T23:27:26.548Z,98102.91
2022-07-25T23:32:31.547Z,98119.59
2022-07-25T23:37:39.302Z,98145.28
2022-07-25T23:42:44.274Z,98155.84
2022-07-25T23:47:49.355Z,98177.97
2022-07-25T23:52:56.913Z,98201.22
2022-07-25T23:58:01.861Z,98199.69
